Date,TemperatureHighF,TemperatureAvgF,TemperatureLowF,DewpointHighF,DewpointAvgF,DewpointLowF,HumidityHigh,HumidityAvg,HumidityLow,PressureMaxIn,PressureMinIn,WindSpeedMaxMPH,WindSpeedAvgMPH,GustSpeedMaxMPH,PrecipitationSumIn
2013-1-1,26,14,5,10,5,-1,75,67,52,30.09,29.85,8,2,8,0.00
2013-1-2,37,26,14,28,18,7,78,74,67,29.97,29.82,10,3,10,0.00
2013-1-3,31,24,18,25,17,12,78,73,59,30.18,29.97,17,3,17,0.00
2013-1-4,39,25,18,23,16,12,81,68,52,30.09,29.88,9,3,9,0.00
2013-1-5,35,26,17,26,17,12,80,69,56,29.97,29.74,15,3,15,0.00
2013-1-6,38,27,13,23,17,8,80,68,54,30.09,29.88,13,3,13,0.00
2013-1-7,43,34,28,28,24,20,82,67,55,29.88,29.71,12,2,12,0.00
2013-1-8,46,34,26,33,26,3,83,73,57,29.88,29.62,12,3,12,0.00
2013-1-9,52,38,28,34,28,22,79,68,50,30.18,29.88,9,2,9,0.00
2013-1-10,41,38,35,36,29,24,93,72,52,30.09,29.47,15,4,15,0.00
2013-1-11,56,42,27,50,39,18,96,88,68,29.53,29.14,24,4,24,0.00
2013-1-12,27,20,11,18,7,-1,69,58,50,29.88,29.53,23,6,23,0.00
2013-1-13,26,15,8,8,1,-4,58,55,47,30.09,29.88,11,4,11,0.00
2013-1-14,33,20,9,16,6,-3,65,55,46,30.21,30.09,10,2,10,0.00
2013-1-15,40,25,14,20,12,5,69,57,45,30.12,29.79,10,2,10,0.00
2013-1-16,55,38,24,35,24,13,71,57,44,30.00,29.68,14,4,14,0.00
2013-1-17,37,30,24,28,24,18,88,78,67,30.21,30.00,6,2,6,0.00
2013-1-18,56,42,30,36,29,26,87,64,46,30.06,29.65,13,4,13,0.00
2013-1-19,56,41,22,33,25,8,68,53,40,30.09,29.62,19,5,19,0.00
2013-1-20,22,18,14,8,4,2,62,55,47,30.18,30.09,11,3,11,0.00
2013-1-21,16,11,5,5,-1,-7,62,57,57,30.24,30.12,12,4,12,0.00
2013-1-22,24,15,11,9,3,-2,63,58,54,30.18,30.00,8,2,8,0.00
2013-1-23,34,20,10,18,8,-2,68,59,52,30.27,29.94,12,3,12,0.00
2013-1-24,20,12,3,3,-3,-9,56,52,47,30.33,29.94,13,4,13,0.00
2013-1-25,52,31,16,31,15,2,65,52,41,30.03,29.88,9,3,9,0.00
2013-1-26,49,32,18,28,17,7,65,54,43,30.03,29.79,14,5,14,0.00
2013-1-27,43,39,36,41,34,22,94,81,49,29.79,29.47,12,4,12,0.00
2013-1-28,46,40,34,46,39,33,98,96,94,29.65,29.35,10,2,10,0.00
2013-1-29,42,35,31,41,33,28,98,93,84,29.50,29.32,13,4,13,0.00
2013-1-30,31,24,15,28,17,7,94,77,57,29.71,29.41,23,6,23,0.00
2013-1-31,15,8,0,7,0,-8,69,68,68,30.21,29.71,18,6,18,0.00
2013-2-1,28,15,-1,17,5,-9,68,64,57,30.21,29.85,12,4,12,0.00
2013-2-2,39,31,26,30,22,16,78,69,61,29.97,29.82,11,3,11,0.00
2013-2-3,46,35,21,28,22,12,71,59,48,30.00,29.59,12,4,12,0.00
2013-2-4,38,28,23,28,20,17,79,71,63,29.82,29.56,15,3,15,0.00
2013-2-5,55,40,26,35,27,21,84,63,40,29.85,29.62,13,3,13,0.00
2013-2-6,54,43,33,37,30,24,72,62,51,29.85,29.62,14,3,14,0.00
2013-2-7,43,35,15,33,27,11,83,74,68,30.00,29.65,14,4,14,0.00
2013-2-8,36,29,26,26,23,20,82,77,69,30.12,29.91,12,4,12,0.00
2013-2-9,50,38,30,37,31,25,87,75,59,29.94,29.47,17,6,17,0.00
2013-2-10,49,38,31,44,32,4,94,79,63,29.59,29.06,23,7,23,0.00
2013-2-11,38,31,24,23,20,17,76,64,54,29.91,29.59,24,6,24,0.00
2013-2-12,54,35,22,31,22,17,82,61,39,29.94,29.68,13,2,13,0.00
2013-2-13,59,41,26,34,25,17,73,54,37,29.71,29.53,11,3,11,0.00
2013-2-14,48,38,22,30,24,11,73,58,42,30.06,29.59,20,5,20,0.00
2013-2-15,35,25,16,18,13,7,75,61,45,30.15,30.06,11,3,11,0.00
2013-2-16,36,26,13,24,16,6,78,67,58,30.12,29.79,10,3,10,0.00
2013-2-17,56,40,26,35,26,18,71,58,45,29.79,29.35,15,5,15,0.00
2013-2-18,46,33,22,30,22,10,79,63,52,29.85,29.35,22,6,22,0.00
2013-2-19,31,18,9,12,2,-6,63,51,40,30.15,29.85,18,6,18,0.00
2013-2-20,25,16,5,7,-1,-11,51,46,44,30.18,29.97,13,4,13,0.00
2013-2-21,26,23,21,18,11,4,81,62,46,30.03,29.62,17,6,17,0.00
2013-2-22,29,21,13,16,13,6,80,70,56,29.82,29.62,13,4,13,0.00
2013-2-23,43,24,10,27,15,3,77,67,52,29.79,29.62,10,3,10,0.00
2013-2-24,46,32,23,31,23,17,80,68,50,29.85,29.68,7,2,7,0.00
2013-2-25,39,31,27,27,24,21,85,75,63,29.85,29.71,13,3,13,0.00
2013-2-26,34,29,26,28,25,22,89,83,79,29.74,29.59,13,4,13,0.00
2013-2-27,40,31,24,24,22,19,83,70,52,29.88,29.68,20,7,20,0.00
2013-2-28,36,29,26,25,21,18,76,72,63,30.00,29.88,14,5,14,0.00
2013-3-1,30,26,24,21,17,13,76,68,58,30.15,30.00,12,4,12,0.00
2013-3-2,39,29,20,22,17,12,72,60,50,30.12,29.88,8,2,8,0.00
2013-3-3,41,34,27,28,23,20,74,65,57,29.88,29.50,18,5,18,0.00
2013-3-4,49,37,32,32,26,22,78,64,51,29.82,29.47,14,4,14,0.00
2013-3-5,34,28,24,23,16,12,65,59,54,30.18,29.79,24,7,24,0.00
2013-3-6,43,31,22,24,18,13,71,59,45,30.21,30.03,13,4,13,0.00
2013-3-7,53,36,24,31,22,16,71,58,42,30.06,29.88,15,6,15,0.00
2013-3-8,56,43,32,36,30,22,79,61,48,29.97,29.71,17,6,17,0.00
2013-3-9,55,46,36,50,42,33,90,85,80,29.71,29.32,15,4,15,0.00
2013-3-10,36,29,23,33,27,21,94,92,89,29.74,29.47,20,7,20,0.00
2013-3-11,37,27,22,26,20,16,92,77,56,29.79,29.68,15,4,15,0.00
2013-3-12,38,30,24,25,20,16,80,66,55,30.09,29.79,18,5,18,0.00
2013-3-13,40,30,19,22,18,12,77,61,49,30.21,30.03,10,3,10,0.00
2013-3-14,62,46,34,40,30,19,69,55,44,30.03,29.85,10,3,10,0.00
2013-3-15,64,48,39,44,37,32,80,66,47,29.85,29.50,10,3,10,0.00
2013-3-16,40,34,29,34,26,20,83,72,61,29.97,29.65,15,5,15,0.00
2013-3-17,48,35,24,30,23,16,82,63,48,29.91,29.53,15,6,15,0.00
2013-3-18,42,35,28,33,21,12,89,59,39,29.85,29.53,20,6,20,0.00
2013-3-19,56,34,21,30,16,8,58,48,34,30.12,29.85,16,3,16,0.00
2013-3-20,40,27,16,17,8,2,56,46,37,30.21,29.88,15,4,15,0.00
2013-3-21,33,28,21,14,10,6,54,47,42,29.88,29.71,13,4,13,0.00
2013-3-22,36,32,27,19,15,12,55,50,45,29.82,29.76,8,3,8,0.00
2013-3-23,40,33,30,25,21,16,79,62,48,29.88,29.79,15,4,15,0.00
2013-3-24,31,28,26,24,20,15,80,72,57,29.85,29.82,16,6,16,0.00
2013-3-25,34,28,24,23,20,16,80,72,57,30.12,29.85,14,6,14,0.00
2013-3-26,46,32,18,25,18,6,74,58,42,30.18,30.03,8,3,8,0.00
2013-3-27,55,42,28,31,24,18,67,51,38,30.06,29.97,13,5,13,0.00
2013-3-28,62,47,33,36,30,25,74,52,36,30.03,29.91,7,2,7,0.00
2013-3-29,72,55,38,40,33,28,69,46,28,30.00,29.82,12,4,12,0.00
2013-3-30,71,58,49,53,41,31,82,56,33,29.85,29.71,11,3,12,0.00
2013-3-31,62,50,33,38,32,22,74,53,29,29.91,29.74,15,4,15,0.00
2013-4-1,46,33,22,25,18,12,73,54,38,30.12,29.91,10,3,10,0.00
2013-4-2,58,41,26,31,21,13,60,44,35,30.09,30.03,8,2,8,0.00
2013-4-3,60,44,32,32,22,16,54,43,34,30.12,30.00,12,3,12,0.00
2013-4-4,69,51,33,39,29,19,64,45,33,30.00,29.82,12,3,12,0.00
2013-4-5,65,51,36,36,30,23,62,47,34,29.94,29.50,16,5,16,0.00
2013-4-6,67,60,52,43,39,35,58,46,36,29.56,29.38,13,4,13,0.00
2013-4-7,56,53,47,47,38,35,77,59,48,29.65,29.41,14,3,14,0.16
2013-4-8,56,54,48,53,51,44,90,88,77,29.50,29.38,11,3,11,0.13
2013-4-9,56,53,34,53,50,33,95,91,90,29.74,29.35,26,6,26,0.45
2013-4-10,38,36,33,36,35,32,97,95,93,29.76,29.59,16,4,16,0.00
2013-4-11,37,33,31,34,30,28,96,89,80,29.62,29.44,13,3,13,0.05
2013-4-12,43,36,32,31,28,25,86,74,58,29.79,29.53,17,6,17,0.00
2013-4-13,55,42,27,38,31,23,86,66,51,29.82,29.47,16,4,16,0.00
2013-4-14,69,54,44,53,42,30,79,63,45,29.47,29.12,17,5,17,0.04
2013-4-15,50,41,34,31,26,21,68,55,47,29.85,29.47,11,4,12,0.00
2013-4-16,55,44,36,32,28,25,67,53,38,30.03,29.85,15,5,15,0.00
2013-4-17,48,42,37,41,36,30,92,79,52,29.94,29.50,19,5,19,0.37
2013-4-18,37,35,32,35,31,26,94,86,75,29.71,29.50,22,8,22,0.17
2013-4-19,47,34,29,27,23,20,77,63,42,29.76,29.68,20,7,20,0.00
2013-4-22,53,42,33,51,40,29,93,89,83,30.00,29.74,17,5,17,0.38
2013-4-23,43,35,30,29,24,18,83,64,49,30.06,29.94,18,5,18,0.00
2013-4-24,65,43,26,35,27,18,74,55,31,30.00,29.82,18,4,18,0.00
2013-4-25,73,53,32,40,32,25,77,49,27,30.06,29.79,15,3,15,0.04
2013-4-26,72,60,51,46,40,32,73,48,40,29.94,29.79,12,4,12,0.00
2013-4-27,67,57,46,53,47,42,88,71,52,29.97,29.74,9,2,9,0.00
2013-4-28,84,61,48,50,47,43,86,64,31,29.74,29.47,14,3,14,0.00
2013-4-29,88,70,57,57,51,46,71,52,28,29.56,29.26,10,3,10,0.00
2013-4-30,76,71,66,53,47,40,49,42,37,29.65,29.26,13,5,13,0.00
2013-5-1,67,67,67,41,41,41,38,38,38,30.18,29.65,20,6,20,0.24
2013-5-2,67,53,37,41,34,25,78,49,38,30.30,30.15,17,4,17,0.00
2013-5-3,48,41,32,31,27,24,72,58,49,30.15,29.82,13,4,13,0.00
2013-5-4,44,40,36,40,35,29,90,83,65,29.94,29.76,13,5,13,0.05
2013-5-5,58,48,42,49,44,40,93,85,73,29.97,29.88,10,3,10,0.00
2013-5-6,72,57,48,55,48,46,90,75,50,29.94,29.79,9,2,9,0.00
2013-5-7,79,63,50,57,51,47,92,68,41,29.85,29.71,10,2,10,0.08
2013-5-8,71,64,58,59,56,52,87,76,66,29.74,29.65,11,2,11,0.00
2013-5-9,72,61,57,62,56,54,95,86,61,29.74,29.62,11,2,11,0.62
2013-5-10,74,60,50,56,48,41,89,67,40,29.85,29.74,13,3,13,0.00
2013-5-11,66,57,48,45,32,22,68,40,26,30.03,29.79,14,4,15,0.13
2013-5-12,71,56,38,34,27,19,48,34,24,30.06,29.88,6,2,6,0.00
2013-5-13,88,67,49,48,38,25,52,36,22,29.88,29.62,15,3,15,0.00
2013-5-14,105,83,62,60,50,43,70,38,15,29.62,29.41,15,3,15,0.00
2013-5-15,87,76,66,43,39,34,38,27,20,29.71,29.53,18,5,18,0.00
2013-5-16,90,74,64,59,51,40,55,44,31,29.65,29.53,10,2,10,0.00
2013-5-17,90,73,66,59,57,54,72,59,33,29.68,29.56,9,2,9,0.00
2013-5-18,89,74,66,64,59,56,73,61,43,29.68,29.47,15,3,15,0.00
2013-5-19,73,67,62,65,62,58,91,84,65,29.59,29.29,18,2,18,0.50
2013-5-20,78,74,73,65,61,50,76,66,43,29.41,29.29,13,3,13,0.04
2013-5-21,73,73,73,50,50,50,45,45,45,29.47,29.35,12,3,12,0.04
2013-5-22,79,79,79,57,57,57,47,47,47,28.50,28.50,0,0,0,0.04
2013-5-23,76,75,75,50,49,48,41,40,39,28.73,28.70,0,0,0,0.00
2013-5-24,76,76,75,52,51,50,42,41,40,28.79,28.52,0,0,0,0.00
2013-5-25,79,76,74,61,52,48,54,43,37,28.61,28.47,0,0,0,0.00
2013-5-26,75,75,74,53,51,50,46,44,43,28.52,28.38,0,0,0,0.00
2013-5-27,76,75,74,53,52,50,47,45,43,28.44,28.14,0,0,0,0.00
2013-5-28,76,75,73,53,52,49,46,45,43,28.26,28.14,0,0,0,0.00
2013-5-29,76,75,73,53,51,49,46,44,43,28.26,28.08,0,0,0,0.00
2013-5-30,76,75,74,56,53,50,50,46,43,28.17,28.02,0,0,0,0.00
2013-5-31,77,75,74,54,52,49,47,44,38,28.23,28.11,0,0,0,0.00
2013-6-1,77,75,73,51,49,47,44,41,37,28.55,28.20,0,0,0,0.00
2013-6-2,74,73,72,50,49,48,43,42,42,28.61,28.55,0,0,0,0.00
2013-6-3,79,72,61,50,48,45,65,45,34,28.52,28.35,0,0,0,0.00
2013-6-4,72,67,59,61,58,50,85,71,57,28.50,28.41,0,0,0,0.00
2013-6-5,75,67,60,62,53,44,90,63,42,28.61,28.50,0,0,0,0.00
2013-6-6,75,65,57,56,49,45,74,58,41,28.55,28.50,0,0,0,0.00
2013-6-7,76,67,53,54,51,47,82,58,42,28.61,28.41,0,0,0,0.00
2013-6-8,76,63,59,62,55,47,95,77,42,28.44,28.17,0,0,0,0.00
2013-6-9,71,64,60,63,60,57,96,87,70,28.38,28.23,0,0,0,0.00
2013-6-10,75,68,58,64,61,55,94,78,68,28.44,28.29,0,0,0,0.00
2013-6-11,75,75,75,64,64,64,68,68,68,28.35,28.23,0,0,0,0.00
2013-6-12,79,75,64,68,63,50,72,67,45,28.52,28.17,0,0,0,0.00
2013-6-13,73,64,59,57,53,50,77,68,52,28.61,28.47,0,0,0,0.00
2013-6-14,79,74,66,67,63,57,77,69,66,28.52,28.29,0,0,0,0.00
2013-6-15,79,74,67,69,65,64,92,74,66,28.47,28.35,0,0,0,0.00
2013-6-16,76,74,68,70,68,64,93,82,69,28.50,28.44,0,0,0,0.00
2013-6-17,92,79,72,70,61,51,79,56,29,28.52,28.44,0,0,0,0.00
2013-6-18,80,73,66,66,58,50,85,60,41,28.61,28.50,0,0,0,0.00
2013-6-19,78,73,66,64,60,50,73,64,48,28.52,28.41,0,0,0,0.00
2013-6-20,80,77,71,68,66,62,77,70,60,28.47,28.35,0,0,0,0.00
2013-6-21,98,84,80,70,68,68,69,61,39,28.41,28.32,0,0,0,0.00
2013-6-22,95,78,70,68,65,62,76,66,42,28.52,28.32,0,0,0,0.00
2013-6-23,80,74,67,66,65,62,87,74,61,28.47,28.26,0,0,0,0.00
2013-6-24,72,72,72,65,65,65,78,78,78,28.38,28.38,0,0,0,0.00
2013-6-26,97,88,84,62,60,59,43,39,32,28.41,28.35,0,0,0,0.00
2013-6-27,84,73,72,68,65,59,87,76,43,28.50,28.38,0,0,0,0.00
2013-6-28,76,73,73,68,66,50,85,80,42,28.50,28.41,0,0,0,0.00
2013-6-29,80,74,66,59,54,50,65,52,43,28.47,28.41,0,0,0,0.00
2013-6-30,81,72,61,57,53,48,77,54,37,28.61,28.47,0,0,0,0.00
2013-7-1,81,72,59,54,52,48,68,50,35,28.70,28.61,0,0,0,0.00
2013-7-2,82,72,64,58,53,49,66,51,40,28.70,28.58,0,0,0,0.00
2013-7-3,78,71,61,62,58,49,83,63,36,28.58,28.47,0,0,0,0.00
2013-7-4,82,74,62,60,56,52,70,54,37,28.50,28.41,0,0,0,0.00
2013-7-5,82,77,68,62,59,53,65,55,47,28.44,28.35,0,0,0,0.00
2013-7-6,82,75,71,63,48,10,67,47,8,30.00,28.35,10,1,10,0.60
2013-7-7,93,83,73,85,34,20,93,22,9,30.06,29.94,15,2,15,0.00
2013-7-8,88,82,78,71,68,65,71,64,48,30.12,30.03,10,2,10,0.00
2013-7-9,93,84,76,77,72,0,100,69,52,30.12,30.00,10,2,10,0.00
2013-7-10,82,77,70,72,65,61,89,67,50,30.24,30.12,13,2,13,0.04
2013-7-11,87,77,68,63,61,58,77,58,45,30.27,30.09,11,2,11,0.00
2013-7-12,90,80,69,72,65,0,100,62,54,30.15,30.03,172,4,229,0.64
2013-7-13,90,80,73,74,67,61,75,65,56,30.12,30.03,115,4,229,0.04
2013-7-14,87,77,71,67,62,58,72,63,43,30.27,30.09,10,3,10,0.04
2013-7-15,90,78,32,76,67,0,94,68,49,30.33,30.21,9,2,9,0.04
2013-7-16,89,80,71,71,68,65,87,69,50,30.39,30.30,6,1,6,0.64
2013-7-17,92,83,74,73,70,68,85,67,50,30.44,30.27,6,2,6,0.64
2013-7-18,93,84,74,73,68,64,82,61,41,30.30,30.06,13,3,13,0.64
2013-7-19,92,83,77,72,65,58,69,56,40,30.09,30.00,8,2,8,0.64
2013-7-20,88,79,70,65,61,57,70,55,41,30.15,29.97,7,2,8,0.72
2013-7-21,90,79,72,72,68,63,82,70,54,30.06,29.91,6,1,6,0.05
2013-7-22,94,82,71,78,72,63,91,74,53,30.00,29.88,8,2,8,0.17
2013-7-23,81,74,66,65,62,60,93,67,53,30.18,29.97,11,3,11,0.21
2013-7-24,82,73,63,62,60,57,82,65,50,30.24,30.09,172,2,172,0.21
2013-7-25,82,73,70,69,63,61,90,71,54,30.18,30.12,12,2,12,0.25
2013-7-26,75,70,64,67,58,50,94,68,46,30.24,30.09,172,2,172,0.21
2013-7-27,73,65,57,52,49,43,78,57,42,30.27,30.12,8,2,9,0.21
2013-7-28,75,66,54,51,48,43,71,52,42,30.24,30.15,10,1,10,0.25
2013-7-29,67,64,60,64,54,29,95,71,47,30.21,30.15,10,2,10,0.21
2013-7-30,73,66,65,68,65,64,98,94,79,30.24,30.15,173,1,173,0.21
2013-7-31,83,74,65,69,66,63,95,79,56,30.27,30.15,8,1,8,0.21
2013-8-1,86,74,66,72,66,63,92,76,52,30.18,29.97,14,2,14,0.25
2013-8-2,82,74,68,70,66,60,93,77,64,30.15,29.94,15,3,15,0.00
2013-8-3,77,71,65,61,58,55,80,63,50,30.30,30.15,12,3,172,0.00
2013-8-4,79,71,63,66,60,0,84,68,59,30.33,30.15,10,2,10,1.26
2013-8-5,84,75,69,78,72,65,95,89,76,30.15,29.97,8,2,8,0.09
2013-8-6,87,77,66,77,72,64,96,85,67,30.09,29.91,12,2,12,0.16
2013-8-7,82,76,69,74,65,59,91,71,50,30.12,29.94,9,2,9,0.00
2013-8-8,77,72,67,66,63,61,83,75,65,30.15,30.06,6,1,6,0.00
2013-8-9,79,73,66,70,64,58,93,75,54,30.27,30.12,13,2,460,2.08
2013-8-10,83,73,63,65,61,59,88,67,49,30.30,30.18,8,1,460,0.00
2013-8-11,86,76,67,71,66,59,84,71,57,30.24,30.09,172,2,230,0.00
2013-8-12,84,76,68,70,65,58,91,71,45,30.21,30.12,86,2,86,0.41
2013-8-13,79,72,64,61,57,52,80,60,45,30.30,30.21,10,2,10,0.00
2013-8-14,76,69,62,62,57,53,79,66,56,30.33,30.18,6,2,6,0.00
2013-8-15,67,63,60,63,60,58,96,90,80,30.27,30.15,11,3,11,0.79
2013-8-16,74,67,62,62,59,0,91,76,60,30.33,30.21,9,2,9,0.00
2013-8-17,78,67,63,62,58,0,85,76,55,30.30,30.27,8,1,8,0.00
2013-8-18,80,71,61,62,59,55,83,66,49,30.27,30.15,10,2,10,0.00
2013-8-19,86,72,66,70,64,61,84,76,57,30.18,30.03,2,2,2,0.00
2013-8-20,89,79,70,73,69,67,89,73,56,30.09,30.03,229,2,229,0.00
2013-8-21,92,81,72,73,70,67,85,70,53,30.12,30.03,229,2,229,0.00
2013-8-22,85,77,71,71,68,65,86,74,60,30.27,30.12,0,0,458,0.00
2013-8-23,89,80,73,76,70,68,85,73,51,30.21,30.09,0,0,458,0.00
2013-8-24,92,82,77,76,72,69,78,70,55,30.21,30.09,2,2,2,0.00
2013-8-25,80,79,79,72,72,72,79,78,77,30.18,30.15,2,2,2,0.00